Time;durP1;ratioP1;P1;durP2;ratioP2;P2;SDS_P1;SDS_P2;PMS_P1;PMS_P2;Temp;Humidity;BMP_temperature;BMP_pressure;BME280_temperature;BME280_humidity;BME280_pressure;Samples;Min_cycle;Max_cycle;Signal;HPM_P1;HPM_P2
2022/10/27 01:12:18;;;;;;;;;3.33;2.00;;;;;17.22;68.40;101106.09;5100767;27;45469;-61
2022/10/27 01:14:46;;;;;;;;;4.33;3.33;;;;;17.21;68.40;101107.06;5100162;27;45681;-61
2022/10/27 01:17:36;;;;;;;;;2.67;2.67;;;;;17.19;68.27;101114.25;5084030;27;46195;-60
2022/10/27 01:20:30;;;;;;;;;2.33;2.33;;;;;17.17;68.52;101116.16;5100093;27;45445;-61
2022/10/27 01:23:02;;;;;;;;;3.00;3.00;;;;;17.18;68.60;101112.53;5085225;27;45767;-60
2022/10/27 01:26:03;;;;;;;;;4.00;4.00;;;;;17.15;68.19;101105.59;5096281;27;45540;-60
2022/10/27 01:29:09;;;;;;;;;2.00;2.00;;;;;17.15;68.59;101102.94;5069955;28;45530;-61
2022/10/27 01:32:16;;;;;;;;;3.00;3.00;;;;;17.10;68.62;101097.00;5089111;27;45475;-60
2022/10/27 01:34:49;;;;;;;;;4.67;3.33;;;;;17.12;68.57;101096.94;5086922;27;45528;-60
2022/10/27 01:37:20;;;;;;;;;4.67;3.00;;;;;17.08;68.24;101090.91;5098174;27;45658;-61
2022/10/27 01:39:58;;;;;;;;;2.67;2.67;;;;;17.07;68.75;101094.53;5098223;27;46207;-60
2022/10/27 01:43:09;;;;;;;;;3.00;3.00;;;;;17.08;68.47;101104.19;5098058;27;45621;-61
2022/10/27 01:45:37;;;;;;;;;2.00;2.00;;;;;17.06;68.65;101098.13;5096116;27;45543;-60
2022/10/27 01:48:06;;;;;;;;;4.00;3.67;;;;;17.06;68.52;101097.25;5098202;27;45585;-60
2022/10/27 01:50:36;;;;;;;;;2.33;2.33;;;;;17.04;68.10;101089.38;5099296;27;45504;-60
2022/10/27 01:53:03;;;;;;;;;3.33;3.33;;;;;17.02;68.66;101104.53;5099406;27;45442;-61
2022/10/27 01:55:44;;;;;;;;;2.00;2.00;;;;;17.02;68.50;101093.91;5098554;27;45561;-61
2022/10/27 01:58:39;;;;;;;;;4.00;4.00;;;;;17.00;68.12;101093.97;5097921;27;45461;-61
2022/10/27 02:01:45;;;;;;;;;3.00;3.00;;;;;16.97;68.33;101093.31;5098114;27;46267;-60
2022/10/27 02:04:35;;;;;;;;;3.00;3.00;;;;;17.00;68.34;101095.78;5098061;27;45504;-61
2022/10/27 02:07:28;;;;;;;;;3.00;3.00;;;;;16.99;68.56;101092.28;5088178;27;45359;-60
2022/10/27 02:10:16;;;;;;;;;3.33;2.33;;;;;16.98;68.41;101077.28;5097521;27;45495;-60
2022/10/27 02:12:45;;;;;;;;;3.33;3.00;;;;;17.02;68.01;101077.13;5098892;27;45504;-61
2022/10/27 02:15:28;;;;;;;;;2.33;2.33;;;;;16.99;67.96;101078.16;5095666;27;45864;-60
2022/10/27 02:18:02;;;;;;;;;3.33;3.33;;;;;16.95;68.07;101069.50;5089689;27;45465;-61
2022/10/27 02:20:34;;;;;;;;;3.00;3.00;;;;;16.97;68.07;101067.59;5099181;27;45453;-60
2022/10/27 02:23:06;;;;;;;;;2.67;2.67;;;;;16.95;68.16;101072.16;5097777;27;46558;-61
2022/10/27 06:16:02;;;;;;;;;5.67;5.00;;;;;16.17;68.00;100996.59;5055962;28;45486;-63
2022/10/27 06:22:01;;;;;;;;;5.67;5.00;;;;;16.20;68.56;100998.22;5053234;28;45504;-65
2022/10/27 06:24:36;;;;;;;;;4.00;4.00;;;;;16.18;68.81;100985.06;5037421;28;45419;-63
2022/10/27 06:27:01;;;;;;;;;6.00;5.00;;;;;16.18;67.96;100977.09;5037538;28;45520;-61
2022/10/27 06:29:26;;;;;;;;;6.33;6.33;;;;;16.21;68.57;100986.69;5056430;28;45462;-63
2022/10/27 06:31:52;;;;;;;;;8.33;6.00;;;;;16.17;67.94;100972.72;5055853;28;45538;-63
2022/10/27 06:34:17;;;;;;;;;5.00;5.00;;;;;16.19;68.23;100973.50;5056223;28;46102;-65
2022/10/27 06:36:43;;;;;;;;;5.33;5.33;;;;;16.21;67.90;100976.94;5042026;28;47902;-63
2022/10/27 06:39:08;;;;;;;;;5.33;5.33;;;;;16.23;67.82;100980.38;5056456;28;45863;-62
2022/10/27 06:41:33;;;;;;;;;5.33;5.33;;;;;16.22;68.64;100977.78;5056700;28;45477;-64
2022/10/27 06:43:59;;;;;;;;;5.67;4.00;;;;;16.22;68.75;100980.44;5056085;28;51769;-65
2022/10/27 06:46:24;;;;;;;;;7.00;4.67;;;;;16.22;68.42;100975.13;5056149;28;45480;-64
2022/10/27 06:48:49;;;;;;;;;5.00;5.00;;;;;16.26;68.52;100979.34;5056070;28;49813;-63
2022/10/27 06:51:14;;;;;;;;;4.00;4.00;;;;;16.27;68.02;100975.75;5056378;28;45601;-65
2022/10/27 06:53:40;;;;;;;;;7.00;5.67;;;;;16.29;68.61;100979.19;5041955;28;53254;-65
2022/10/27 06:56:05;;;;;;;;;5.00;5.00;;;;;16.30;68.33;100972.94;5055989;28;45342;-64
2022/10/27 06:58:34;;;;;;;;;6.00;3.00;;;;;16.29;68.09;100966.78;5056338;28;45477;-63
2022/10/27 07:00:59;;;;;;;;;3.33;3.33;;;;;16.30;67.90;100976.44;5056216;28;45395;-65
2022/10/27 07:03:24;;;;;;;;;4.33;4.33;;;;;16.29;68.61;100984.50;5055950;28;46374;-65
2022/10/27 07:05:49;;;;;;;;;4.67;4.67;;;;;16.29;68.32;100989.81;5063643;28;45303;-64
2022/10/27 07:08:15;;;;;;;;;6.00;5.33;;;;;16.28;68.06;100993.38;5058136;28;45470;-61
2022/10/27 07:10:40;;;;;;;;;4.67;4.67;;;;;16.27;68.24;100999.63;5075618;28;45520;-61
2022/10/27 07:13:05;;;;;;;;;5.00;5.00;;;;;16.29;68.44;101013.69;5075286;28;45409;-62
2022/10/27 07:15:32;;;;;;;;;6.67;6.67;;;;;16.31;67.74;101015.34;5075542;28;45434;-63
2022/10/27 07:17:59;;;;;;;;;3.67;3.67;;;;;16.34;68.03;101016.97;5075506;28;45283;-63
2022/10/27 07:20:27;;;;;;;;;4.00;4.00;;;;;16.39;67.64;101014.03;5075559;28;45481;-65
2022/10/27 07:22:52;;;;;;;;;4.67;4.67;;;;;16.38;68.12;101013.19;5075320;28;45473;-62
2022/10/27 07:25:17;;;;;;;;;6.00;6.00;;;;;16.40;67.79;101015.78;5075167;28;50955;-62
2022/10/27 07:27:52;;;;;;;;;5.00;5.00;;;;;16.42;67.79;101019.22;5062342;28;45505;-62
2022/10/27 07:30:19;;;;;;;;;5.00;5.00;;;;;16.47;67.78;101033.09;5061553;28;45462;-65
2022/10/27 07:32:44;;;;;;;;;4.33;4.33;;;;;16.50;67.68;101047.06;5075279;28;46106;-63
2022/10/27 07:35:09;;;;;;;;;8.00;7.00;;;;;16.54;67.64;101064.53;5075283;28;45492;-62
2022/10/27 07:37:40;;;;;;;;;4.67;4.67;;;;;16.60;67.53;101063.34;5075343;28;45429;-62
2022/10/27 07:40:06;;;;;;;;;5.33;5.00;;;;;16.61;67.59;101057.13;5075362;28;45410;-62
2022/10/27 07:42:31;;;;;;;;;11.33;7.67;;;;;16.64;67.76;101049.00;5075282;28;46313;-65
2022/10/27 07:44:57;;;;;;;;;4.00;4.00;;;;;16.64;67.75;101050.78;5074472;28;54808;-65
2022/10/27 07:47:22;;;;;;;;;6.67;6.67;;;;;16.68;67.56;101047.88;5075482;28;45441;-63
2022/10/27 07:49:48;;;;;;;;;5.67;4.67;;;;;16.75;67.23;101059.91;5073945;28;52614;-63
2022/10/27 07:52:13;;;;;;;;;6.67;5.33;;;;;16.78;67.09;101066.88;5074511;28;53631;-64
2022/10/27 07:54:38;;;;;;;;;6.00;5.00;;;;;16.78;67.02;101049.13;5074370;28;61390;-63
2022/10/27 07:57:03;;;;;;;;;6.67;6.67;;;;;16.77;67.23;101041.25;5074944;28;45459;-61
2022/10/27 07:59:29;;;;;;;;;7.00;6.00;;;;;16.76;67.06;101039.50;5074514;28;55963;-66
2022/10/27 08:01:54;;;;;;;;;7.00;5.67;;;;;16.78;67.70;101037.66;5074928;28;45842;-64
2022/10/27 08:04:19;;;;;;;;;9.00;8.33;;;;;16.83;67.46;101040.91;5073521;28;55310;-65
2022/10/27 08:06:45;;;;;;;;;7.33;7.33;;;;;16.86;67.72;101045.22;5074567;28;50908;-64
2022/10/27 08:09:10;;;;;;;;;7.00;7.00;;;;;16.88;67.65;101044.19;5074543;28;49726;-62
2022/10/27 08:11:36;;;;;;;;;7.33;7.33;;;;;16.89;67.51;101042.38;5074714;28;46187;-62
2022/10/27 08:14:01;;;;;;;;;8.67;8.67;;;;;16.91;67.44;101044.00;5074869;28;45445;-63
2022/10/27 08:16:26;;;;;;;;;8.00;6.67;;;;;16.91;67.52;101043.16;5075063;28;45484;-65
2022/10/27 08:18:52;;;;;;;;;11.33;11.33;;;;;16.92;67.65;101045.72;5073088;28;52291;-64
2022/10/27 08:21:17;;;;;;;;;10.67;10.00;;;;;16.95;67.40;101050.88;5074841;28;48829;-61
2022/10/27 08:23:42;;;;;;;;;8.33;8.00;;;;;16.99;67.67;101046.25;5074836;28;45409;-63
2022/10/27 08:26:08;;;;;;;;;9.67;8.00;;;;;17.04;67.39;101056.66;5074673;28;45382;-64
2022/10/27 08:28:33;;;;;;;;;9.33;9.33;;;;;17.05;67.68;101063.66;5056662;28;45396;-63
2022/10/27 08:30:58;;;;;;;;;7.00;7.00;;;;;17.04;67.69;101054.84;5074582;28;45484;-64
2022/10/27 08:33:23;;;;;;;;;7.00;7.00;;;;;17.04;67.58;101060.16;5056392;28;45385;-64
2022/10/27 08:35:49;;;;;;;;;11.33;11.33;;;;;17.07;67.30;101059.13;5077666;28;47699;-62
2022/10/27 08:38:15;;;;;;;;;10.33;10.00;;;;;17.10;67.65;101059.81;5059757;28;45597;-63
2022/10/27 08:40:50;;;;;;;;;10.33;9.33;;;;;17.12;67.48;101065.06;5077864;28;47472;-66
2022/10/27 08:43:46;;;;;;;;;11.00;10.00;;;;;17.14;67.72;101064.03;5077704;28;45456;-65
2022/10/27 08:46:35;;;;;;;;;11.00;11.00;;;;;17.17;67.53;101063.00;5077778;28;45438;-63
2022/10/27 08:49:03;;;;;;;;;14.67;14.67;;;;;17.19;67.40;101058.44;5077764;28;45490;-62
2022/10/27 08:51:31;;;;;;;;;13.33;11.67;;;;;17.19;67.43;101064.63;5077425;28;45986;-63
2022/10/27 08:53:57;;;;;;;;;16.33;14.33;;;;;17.19;67.48;101061.97;5077397;28;45442;-65
2022/10/27 08:56:29;;;;;;;;;14.00;13.33;;;;;17.26;67.48;101067.78;5059170;28;45584;-65
2022/10/27 08:58:55;;;;;;;;;14.00;13.00;;;;;17.28;67.37;101065.06;5077304;28;45572;-62
2022/10/27 09:01:39;;;;;;;;;16.00;16.00;;;;;17.27;67.39;101069.50;5077265;28;46025;-64
2022/10/27 09:04:32;;;;;;;;;12.00;12.00;;;;;17.26;67.46;101075.75;5077246;28;45447;-65
2022/10/27 09:07:19;;;;;;;;;11.33;10.67;;;;;17.27;67.19;101069.50;5077338;28;45430;-62
2022/10/27 09:10:01;;;;;;;;;10.67;10.67;;;;;17.34;67.32;101078.00;5078172;28;45351;-62
2022/10/27 09:13:05;;;;;;;;;12.33;12.33;;;;;17.40;67.12;101075.84;5076582;28;45520;-64
2022/10/27 09:15:37;;;;;;;;;12.00;12.00;;;;;17.44;67.22;101079.22;5077106;28;45407;-64
2022/10/27 09:18:05;;;;;;;;;10.00;8.33;;;;;17.52;67.04;101079.63;5077431;28;45444;-64
2022/10/27 09:20:51;;;;;;;;;11.00;10.00;;;;;17.59;67.03;101088.09;5077246;28;45437;-64
2022/10/27 09:23:19;;;;;;;;;11.33;11.33;;;;;17.63;66.58;101071.88;5065602;28;46411;-63
2022/10/27 09:25:47;;;;;;;;;11.00;11.00;;;;;17.65;66.65;101064.69;5075969;28;45430;-64
2022/10/27 09:28:21;;;;;;;;;11.33;10.00;;;;;17.69;66.56;101081.31;5058008;28;45456;-64
2022/10/27 09:30:49;;;;;;;;;16.00;15.00;;;;;17.75;66.68;101091.59;5077211;28;45416;-66
2022/10/27 09:33:19;;;;;;;;;13.00;12.00;;;;;17.77;66.62;101096.84;5076555;28;45895;-64
2022/10/27 09:35:44;;;;;;;;;9.33;9.33;;;;;17.82;66.57;101106.31;5077005;28;45390;-65
2022/10/27 09:38:16;;;;;;;;;13.00;11.00;;;;;17.82;66.35;101092.16;5076914;28;45895;-63
2022/10/27 09:40:42;;;;;;;;;12.00;11.00;;;;;17.84;66.43;101092.94;5076959;28;45457;-65
2022/10/27 09:43:09;;;;;;;;;8.33;7.00;;;;;17.87;66.24;101092.75;5076862;28;45988;-63
2022/10/27 09:45:34;;;;;;;;;10.33;8.00;;;;;17.92;66.20;101100.44;5075639;28;45431;-62
2022/10/27 09:48:06;;;;;;;;;10.33;10.00;;;;;17.96;66.15;101096.66;5076675;28;45367;-64
2022/10/27 09:50:35;;;;;;;;;13.67;11.67;;;;;18.02;66.10;101090.97;5076825;28;45475;-64
2022/10/27 09:53:01;;;;;;;;;14.67;14.33;;;;;18.06;65.92;101079.22;5058480;28;47066;-65
2022/10/27 09:55:50;;;;;;;;;9.67;8.67;;;;;18.14;65.85;101068.13;5076247;28;45420;-65
2022/10/27 09:58:17;;;;;;;;;11.00;10.67;;;;;18.22;65.26;101069.38;5076611;28;45491;-65
2022/10/27 10:00:43;;;;;;;;;9.33;7.33;;;;;18.28;65.09;101078.78;5076485;28;45561;-65
2022/10/27 10:03:19;;;;;;;;;9.00;7.00;;;;;18.33;65.37;101074.06;5076358;28;45285;-66
2022/10/27 10:05:46;;;;;;;;;6.00;6.00;;;;;18.40;65.22;101066.53;5071558;28;45510;-69
2022/10/27 10:08:29;;;;;;;;;7.67;7.67;;;;;18.45;64.48;101083.09;5066871;28;45421;-64
2022/10/27 10:10:59;;;;;;;;;9.67;9.67;;;;;18.50;64.42;101084.53;5061246;28;45354;-63
2022/10/27 10:13:27;;;;;;;;;9.00;9.00;;;;;18.54;64.51;101083.41;5073681;28;45968;-63
2022/10/27 10:16:11;;;;;;;;;6.33;6.00;;;;;18.56;64.66;101085.94;5060171;28;45433;-62
2022/10/27 10:18:46;;;;;;;;;8.00;8.00;;;;;18.57;64.05;101082.38;5068167;28;45475;-64
2022/10/27 10:21:13;;;;;;;;;11.33;10.00;;;;;18.61;64.54;101078.53;5076133;28;45422;-65
2022/10/27 10:23:46;;;;;;;;;12.00;11.00;;;;;18.65;63.98;101081.91;5075916;28;45471;-62
2022/10/27 10:26:20;;;;;;;;;13.00;10.67;;;;;18.67;64.15;101091.50;5062035;28;45532;-63
2022/10/27 10:28:46;;;;;;;;;6.00;6.00;;;;;18.70;64.44;101101.97;5058349;28;45792;-61
2022/10/27 10:31:15;;;;;;;;;12.33;11.33;;;;;18.73;64.14;101101.78;5068931;28;45581;-64
2022/10/27 10:33:45;;;;;;;;;10.67;9.33;;;;;18.79;64.22;101100.56;5061496;28;45433;-63
2022/10/27 10:36:26;;;;;;;;;11.67;11.67;;;;;18.84;64.25;101103.81;5075005;28;45506;-64
2022/10/27 10:38:55;;;;;;;;;10.33;10.33;;;;;18.88;63.41;101105.31;5076105;28;45453;-62
2022/10/27 10:41:21;;;;;;;;;7.00;7.00;;;;;18.93;63.11;101097.06;5075894;28;45602;-65
2022/10/27 10:44:13;;;;;;;;;8.33;8.33;;;;;18.93;63.25;101105.91;5075308;28;45496;-62
2022/10/27 10:46:48;;;;;;;;;10.33;10.33;;;;;18.96;63.42;101099.53;5075401;28;45488;-64
2022/10/27 10:49:23;;;;;;;;;7.00;7.00;;;;;18.97;63.38;101091.44;5075642;28;45415;-64
2022/10/27 10:51:55;;;;;;;;;12.67;11.67;;;;;19.01;63.53;101092.09;5075709;28;45525;-63
2022/10/27 10:54:31;;;;;;;;;7.67;7.67;;;;;19.05;63.50;101085.63;5074491;28;46548;-63
2022/10/27 10:56:57;;;;;;;;;6.00;6.00;;;;;19.11;62.94;101079.91;5075074;28;45588;-63
2022/10/27 10:59:27;;;;;;;;;9.33;8.67;;;;;19.15;63.35;101080.56;5075593;28;45383;-65
2022/10/27 11:02:01;;;;;;;;;11.33;8.33;;;;;19.18;63.19;101067.91;5075485;28;45370;-64
2022/10/27 11:04:32;;;;;;;;;9.67;8.67;;;;;19.22;63.17;101086.38;5075413;28;46069;-65
2022/10/27 11:07:00;;;;;;;;;16.67;14.00;;;;;19.26;63.24;101087.88;5075210;28;45439;-62
2022/10/27 11:09:33;;;;;;;;;13.33;12.33;;;;;19.30;63.19;101082.25;5075922;28;45514;-63
2022/10/27 11:12:00;;;;;;;;;11.67;8.33;;;;;19.37;63.25;101088.03;5075088;28;45507;-63
2022/10/27 11:14:28;;;;;;;;;9.67;8.33;;;;;19.46;62.55;101078.59;5074842;28;46207;-65
2022/10/27 11:16:58;;;;;;;;;11.33;9.67;;;;;19.52;62.73;101071.03;5075085;28;45461;-66
2022/10/27 11:19:29;;;;;;;;;7.67;7.67;;;;;19.54;61.67;101057.63;5075175;28;45450;-64
2022/10/27 11:22:05;;;;;;;;;8.67;7.00;;;;;19.55;61.45;101057.50;5075087;28;45525;-65
2022/10/27 11:24:57;;;;;;;;;9.67;9.67;;;;;19.60;61.34;101059.88;5074544;28;45465;-64
2022/10/27 11:27:28;;;;;;;;;8.67;7.33;;;;;19.61;61.51;101064.25;5064425;28;45470;-65
2022/10/27 11:30:18;;;;;;;;;13.67;11.00;;;;;19.62;61.60;101066.81;5071956;28;45438;-61
2022/10/27 11:33:01;;;;;;;;;17.67;15.67;;;;;19.68;61.66;101059.41;5055886;28;45390;-63
2022/10/27 11:35:44;;;;;;;;;7.75;6.25;;;;;19.75;61.28;101060.72;5061066;28;45517;-63
2022/10/27 11:38:50;;;;;;;;;8.75;7.75;;;;;19.80;61.23;101054.13;5074753;28;45474;-62
2022/10/27 11:41:27;;;;;;;;;8.33;8.33;;;;;19.87;61.74;101057.22;5028709;28;45463;-62
2022/10/27 11:44:05;;;;;;;;;7.00;7.00;;;;;19.96;61.04;101063.75;5074890;28;45480;-63
2022/10/27 11:46:40;;;;;;;;;20.00;20.00;;;;;20.02;60.33;101053.50;5074756;28;46309;-62
2022/10/27 11:49:20;;;;;;;;;13.00;12.00;;;;;20.05;60.64;101058.66;5074679;28;45473;-65
2022/10/27 11:51:51;;;;;;;;;8.00;8.00;;;;;20.09;60.21;101053.94;5074745;28;45472;-63
2022/10/27 11:54:17;;;;;;;;;11.00;9.33;;;;;20.11;60.50;101054.69;5074696;28;45382;-62
2022/10/27 11:56:55;;;;;;;;;16.00;13.00;;;;;20.20;59.97;101051.41;5074382;28;45373;-65
2022/10/27 12:00:04;;;;;;;;;6.75;6.75;;;;;20.25;59.66;101057.28;5061966;28;45555;-62
2022/10/27 12:02:48;;;;;;;;;9.00;6.75;;;;;20.32;59.88;101051.53;4972728;28;45508;-64
2022/10/27 12:05:20;;;;;;;;;6.75;6.00;;;;;20.40;59.18;101051.84;5047777;28;45401;-62
2022/10/27 12:08:01;;;;;;;;;6.50;6.00;;;;;20.47;59.12;101048.66;5073478;28;45442;-62
2022/10/27 12:10:58;;;;;;;;;8.25;8.25;;;;;20.55;58.58;101049.94;5078057;28;45513;-66
2022/10/27 12:13:57;;;;;;;;;6.25;5.25;;;;;20.63;59.24;101052.94;5077688;28;45448;-65
2022/10/27 12:17:00;;;;;;;;;7.50;6.50;;;;;20.74;58.76;101069.94;5065624;28;45396;-62
2022/10/27 12:19:38;;;;;;;;;5.75;4.25;;;;;20.85;58.77;101044.28;5020641;28;45545;-64
2022/10/27 12:22:19;;;;;;;;;17.00;13.33;;;;;20.93;58.14;101047.25;5078061;28;45426;-65
2022/10/27 12:25:13;;;;;;;;;7.75;6.75;;;;;20.98;57.58;101037.06;5078182;28;45465;-65
2022/10/27 12:27:44;;;;;;;;;5.00;4.50;;;;;21.07;57.28;101040.91;5062246;28;45582;-63
2022/10/27 12:30:17;;;;;;;;;6.00;6.00;;;;;21.12;57.49;101033.41;5077220;28;45374;-64
2022/10/27 12:32:45;;;;;;;;;8.25;7.25;;;;;21.23;57.28;101040.66;5078241;28;45398;-65
2022/10/27 12:35:28;;;;;;;;;8.00;8.00;;;;;21.33;56.81;101038.97;5078284;28;45418;-63
2022/10/27 12:38:06;;;;;;;;;9.00;8.75;;;;;21.44;56.93;101035.53;5078152;28;45439;-65
2022/10/27 12:40:42;;;;;;;;;6.50;5.25;;;;;21.48;56.78;101037.03;5078068;28;45503;-64
2022/10/27 12:43:14;;;;;;;;;6.75;6.50;;;;;21.57;56.18;101037.22;5077213;28;45496;-62
2022/10/27 12:45:50;;;;;;;;;9.50;7.25;;;;;21.64;56.16;101032.25;5078286;28;45356;-65
2022/10/27 12:48:54;;;;;;;;;9.00;8.00;;;;;21.72;55.86;101037.88;5078018;28;45476;-64
2022/10/27 12:51:25;;;;;;;;;5.50;5.50;;;;;21.68;55.43;101031.06;5077561;28;46179;-61
2022/10/27 12:54:18;;;;;;;;;7.00;6.75;;;;;21.66;55.74;101030.31;5076758;28;45468;-62
2022/10/27 12:56:56;;;;;;;;;7.25;6.75;;;;;21.68;55.56;101028.38;5077531;28;45526;-62
2022/10/27 12:59:52;;;;;;;;;7.25;7.25;;;;;21.79;55.99;101024.91;5078011;28;45496;-62
2022/10/27 13:02:22;;;;;;;;;8.00;7.50;;;;;21.91;55.88;101012.38;5077181;28;45477;-62
2022/10/27 13:05:22;;;;;;;;;10.50;8.25;;;;;22.04;55.44;101016.69;5077505;28;45405;-64
2022/10/27 13:08:07;;;;;;;;;11.25;10.75;;;;;22.17;55.13;101013.91;5059631;28;45435;-65
2022/10/27 13:11:01;;;;;;;;;12.50;10.25;;;;;22.28;54.97;101008.59;5077490;28;45304;-63
2022/10/27 13:13:56;;;;;;;;;5.25;5.25;;;;;22.30;54.15;101004.94;5076312;28;45560;-62
2022/10/27 13:16:43;;;;;;;;;7.75;6.75;;;;;22.19;54.85;100998.63;5063784;28;45490;-63
2022/10/27 13:19:44;;;;;;;;;5.75;5.00;;;;;22.13;54.95;100990.16;5076279;28;45505;-61
2022/10/27 13:22:15;;;;;;;;;7.00;7.00;;;;;22.14;55.58;100986.50;5076400;28;45401;-64
2022/10/27 13:25:12;;;;;;;;;6.50;6.50;;;;;22.26;54.99;100980.22;5075057;28;46484;-62
2022/10/27 13:27:41;;;;;;;;;6.75;6.75;;;;;22.35;54.28;100981.31;5027811;28;45408;-62
2022/10/27 13:30:16;;;;;;;;;5.75;5.25;;;;;22.34;54.55;100976.94;5074685;28;45455;-65
2022/10/27 13:32:47;;;;;;;;;5.50;5.00;;;;;22.40;54.70;100989.84;5076123;28;45405;-63
2022/10/27 13:35:12;;;;;;;;;5.50;5.50;;;;;22.39;54.14;100972.91;5075468;28;45493;-63
2022/10/27 13:37:52;;;;;;;;;6.00;6.00;;;;;22.44;53.96;100978.78;5075786;28;45375;-61
2022/10/27 13:40:18;;;;;;;;;6.25;4.75;;;;;22.48;53.69;100961.47;5075843;28;45516;-63
2022/10/27 13:42:44;;;;;;;;;5.25;5.25;;;;;22.50;54.26;100956.84;5076035;28;45703;-64
2022/10/27 13:45:28;;;;;;;;;5.25;4.00;;;;;22.50;53.46;100954.16;5075592;28;46468;-65
2022/10/27 13:48:05;;;;;;;;;5.00;5.00;;;;;22.50;54.08;100955.97;5075747;28;45347;-63
2022/10/27 13:50:35;;;;;;;;;5.00;5.00;;;;;22.45;53.84;100963.53;5075629;28;45535;-64
2022/10/27 13:53:21;;;;;;;;;7.50;7.00;;;;;22.40;54.10;100957.69;5075691;28;45413;-63
2022/10/27 13:55:54;;;;;;;;;7.00;7.00;;;;;22.33;54.23;100953.81;5074160;28;46151;-65
2022/10/27 13:58:28;;;;;;;;;5.00;5.00;;;;;22.24;54.28;100961.56;5075484;28;45551;-64
2022/10/27 14:01:44;;;;;;;;;5.00;5.00;;;;;22.18;54.89;100955.81;5075689;28;45528;-63
2022/10/27 14:04:31;;;;;;;;;10.25;6.50;;;;;22.11;54.83;100965.31;4956957;28;45490;-64
2022/10/27 14:07:00;;;;;;;;;6.00;6.00;;;;;22.07;54.85;100967.38;4973087;28;45478;-64
2022/10/27 14:09:34;;;;;;;;;7.25;6.25;;;;;22.01;55.29;100963.34;5033839;28;45428;-65
2022/10/27 14:12:04;;;;;;;;;7.40;7.40;;;;;21.96;55.57;100962.84;5030331;28;1087716;-65
2022/10/27 14:14:35;;;;;;;;;7.50;6.00;;;;;21.92;55.08;100965.88;5076579;28;45588;-62
2022/10/27 14:17:17;;;;;;;;;5.50;5.50;;;;;21.89;55.48;100969.66;5057728;28;45488;-62
2022/10/27 14:19:47;;;;;;;;;6.50;6.25;;;;;21.87;55.39;100960.91;5063353;28;45417;-65
2022/10/27 14:22:26;;;;;;;;;7.00;6.00;;;;;21.82;55.83;100953.22;5076744;28;45462;-65
2022/10/27 14:25:01;;;;;;;;;7.50;6.00;;;;;21.77;56.07;100955.38;5063978;28;45379;-64
2022/10/27 14:27:26;;;;;;;;;7.25;7.25;;;;;21.73;56.61;100953.91;5065545;28;45510;-63
2022/10/27 14:29:52;;;;;;;;;7.00;7.00;;;;;21.71;56.48;100953.19;5058629;28;45478;-65
2022/10/27 14:32:21;;;;;;;;;5.00;5.00;;;;;21.68;56.64;100952.56;5075641;28;45386;-63
2022/10/27 14:34:49;;;;;;;;;18.00;16.33;;;;;21.67;56.61;100948.19;5076294;28;45657;-65
2022/10/27 14:37:28;;;;;;;;;11.75;11.75;;;;;21.64;57.11;100957.28;5076183;28;45457;-64
2022/10/27 14:39:55;;;;;;;;;5.00;5.00;;;;;21.62;57.07;100954.72;5075903;28;45486;-65
2022/10/27 14:42:39;;;;;;;;;7.25;5.75;;;;;21.64;56.75;100953.78;5076265;28;45364;-65
2022/10/27 14:45:12;;;;;;;;;5.50;4.75;;;;;21.62;56.74;100951.19;5076002;28;45386;-62
2022/10/27 14:47:42;;;;;;;;;5.50;4.50;;;;;21.63;57.05;100944.91;5076078;28;45448;-62
2022/10/27 14:50:14;;;;;;;;;8.00;4.50;;;;;21.65;56.93;100940.25;5075393;28;45446;-63
2022/10/27 14:52:43;;;;;;;;;5.75;5.75;;;;;21.67;57.05;100958.88;5076220;28;45447;-63
2022/10/27 14:55:36;;;;;;;;;6.75;6.75;;;;;21.64;56.88;100945.75;5069937;28;45648;-66
2022/10/27 14:58:02;;;;;;;;;8.75;6.00;;;;;21.62;57.01;100952.03;5043840;28;46629;-68
2022/10/27 15:00:31;;;;;;;;;5.50;5.50;;;;;21.60;56.97;100953.13;5053080;28;45490;-67
2022/10/27 15:02:59;;;;;;;;;6.75;6.50;;;;;21.56;57.15;100957.88;5069203;28;45429;-68
2022/10/27 15:05:35;;;;;;;;;7.50;6.00;;;;;21.52;57.54;100964.44;5075958;28;45562;-67
2022/10/27 15:08:04;;;;;;;;;13.00;9.00;;;;;21.49;57.50;100963.81;5067267;28;45540;-66
2022/10/27 15:10:35;;;;;;;;;7.50;6.00;;;;;21.44;57.89;100971.31;5070350;28;45791;-66
2022/10/27 15:13:02;;;;;;;;;5.50;5.50;;;;;21.41;57.73;100975.06;5074466;28;45513;-63
2022/10/27 15:15:35;;;;;;;;;6.50;5.50;;;;;21.38;57.88;100978.84;5074784;28;45729;-65
2022/10/27 15:18:18;;;;;;;;;6.25;6.00;;;;;21.34;57.93;100971.13;5075298;28;46184;-71
2022/10/27 15:20:44;;;;;;;;;6.00;6.00;;;;;21.32;57.96;100971.25;5064871;28;45537;-68
2022/10/27 15:23:12;;;;;;;;;5.50;5.50;;;;;21.32;58.08;100967.72;5067661;28;45475;-62
2022/10/27 15:25:39;;;;;;;;;7.00;7.00;;;;;21.29;58.34;100966.13;5059356;28;45591;-67
2022/10/27 15:28:07;;;;;;;;;6.25;6.25;;;;;21.27;58.37;100961.84;5059680;28;46278;-69
2022/10/27 15:30:34;;;;;;;;;8.00;7.75;;;;;21.24;58.18;100968.28;5069952;28;45612;-70
2022/10/27 15:32:59;;;;;;;;;8.75;7.50;;;;;21.24;58.45;100962.94;5069156;28;45396;-67
2022/10/27 15:35:29;;;;;;;;;11.00;8.00;;;;;21.21;58.54;100955.16;5062664;28;45442;-75
2022/10/27 15:37:55;;;;;;;;;6.50;6.50;;;;;21.19;58.78;100957.06;5055785;28;45435;-73
2022/10/27 15:40:43;;;;;;;;;8.50;8.25;;;;;21.17;58.79;100962.56;5073354;28;45474;-73
2022/10/27 15:43:22;;;;;;;;;8.00;8.00;;;;;21.13;58.78;100961.06;5074240;28;45378;-71
2022/10/27 15:45:48;;;;;;;;;6.75;6.50;;;;;21.11;59.08;100960.31;5078599;28;45511;-72
2022/10/27 15:48:23;;;;;;;;;8.50;6.00;;;;;21.11;59.29;100964.81;5077606;28;45513;-72
2022/10/27 15:50:57;;;;;;;;;7.00;7.00;;;;;21.08;59.39;100963.22;5069862;28;45766;-71
2022/10/27 15:53:23;;;;;;;;;7.00;6.50;;;;;;;;5060488;28;45469;-73
2022/10/27 15:56:05;;;;;;;;;6.50;6.50;;;;;21.04;59.60;100979.63;5059215;28;45382;-71
2022/10/27 15:58:36;;;;;;;;;7.00;7.00;;;;;21.01;59.80;100982.50;5067648;28;45641;-72
2022/10/27 16:01:03;;;;;;;;;7.25;7.00;;;;;20.98;59.52;100970.19;5077924;28;45445;-65
2022/10/27 16:03:35;;;;;;;;;9.75;8.50;;;;;20.95;60.04;100971.31;5077232;28;45399;-69
2022/10/27 16:06:23;;;;;;;;;9.25;7.00;;;;;20.92;59.94;100976.84;5063611;28;45457;-68
2022/10/27 16:08:49;;;;;;;;;9.50;9.50;;;;;20.91;60.09;100967.13;5077240;28;45505;-70
2022/10/27 16:11:18;;;;;;;;;10.00;10.00;;;;;20.88;60.19;100966.50;5077472;28;45370;-67
2022/10/27 16:13:53;;;;;;;;;8.25;7.25;;;;;20.86;60.39;100961.25;5071406;28;45493;-63
2022/10/27 16:16:19;;;;;;;;;8.50;8.00;;;;;20.86;60.30;100953.25;5065394;28;45444;-64
2022/10/27 16:18:45;;;;;;;;;8.00;8.00;;;;;20.84;60.55;100944.47;5076882;28;45547;-64
2022/10/27 16:21:28;;;;;;;;;7.25;7.25;;;;;20.83;60.79;100953.47;5063905;28;45525;-63
2022/10/27 16:23:59;;;;;;;;;8.25;7.00;;;;;20.82;60.74;100957.13;5078428;28;45490;-64
2022/10/27 16:26:27;;;;;;;;;8.00;7.25;;;;;20.80;60.84;100953.69;5076481;28;45614;-64
2022/10/27 16:28:54;;;;;;;;;9.25;7.75;;;;;20.78;61.20;100954.78;5067033;28;45474;-63
2022/10/27 16:31:19;;;;;;;;;6.75;6.75;;;;;20.76;60.93;100962.88;5078742;28;45421;-64
2022/10/27 16:33:46;;;;;;;;;6.75;6.00;;;;;20.74;61.22;100956.81;5079152;28;45435;-63
2022/10/27 16:36:14;;;;;;;;;7.50;6.75;;;;;20.71;61.29;100944.53;5078544;28;45459;-63
2022/10/27 16:38:41;;;;;;;;;9.25;7.75;;;;;20.69;61.57;100945.59;5077855;28;47920;-62
2022/10/27 16:41:11;;;;;;;;;7.75;7.00;;;;;20.66;61.70;100952.03;5078594;28;45314;-62
2022/10/27 16:43:36;;;;;;;;;14.00;10.00;;;;;20.65;61.65;100939.59;5077500;28;45502;-62
2022/10/27 16:46:02;;;;;;;;;8.75;7.00;;;;;20.65;61.86;100936.94;5078013;28;45461;-63
2022/10/27 16:48:28;;;;;;;;;9.00;7.00;;;;;20.64;61.59;100939.75;5078205;28;46308;-63
2022/10/27 16:50:53;;;;;;;;;7.50;7.50;;;;;20.63;62.04;100938.88;5078335;28;45458;-63
2022/10/27 16:53:23;;;;;;;;;9.75;9.00;;;;;20.62;62.01;100931.81;5078635;28;45492;-64
2022/10/27 16:55:58;;;;;;;;;7.00;6.00;;;;;20.60;62.13;100940.91;5065321;28;45513;-64
2022/10/27 16:58:24;;;;;;;;;6.50;5.00;;;;;20.58;61.95;100946.38;5077957;28;45474;-63